createdAt,value
2018-02-01T00:00:41.277Z,19.80
2018-02-01T00:01:41.256Z,19.87
2018-02-01T00:02:41.240Z,19.84
2018-02-01T00:03:41.232Z,19.74
2018-02-01T00:04:41.200Z,19.76
2018-02-01T00:05:41.215Z,19.78
2018-02-01T00:06:41.159Z,19.83
2018-02-01T00:07:41.162Z,19.80
2018-02-01T00:08:41.146Z,19.71
2018-02-01T00:09:41.097Z,19.76
2018-02-01T00:10:41.106Z,19.76
2018-02-01T00:11:41.056Z,19.73
2018-02-01T00:12:41.039Z,19.80
2018-02-01T00:13:41.043Z,19.74
2018-02-01T00:14:41.026Z,19.65
2018-02-01T00:15:40.976Z,19.66
2018-02-01T00:16:40.986Z,19.74
2018-02-01T00:17:40.940Z,19.63
2018-02-01T00:18:40.918Z,19.66
2018-02-01T00:19:40.896Z,19.63
2018-02-01T00:20:40.888Z,19.61
2018-02-01T00:21:40.866Z,19.68
2018-02-01T00:22:40.837Z,19.62
2018-02-01T00:23:40.820Z,19.62
2018-02-01T00:24:40.799Z,19.58
2018-02-01T00:25:40.790Z,19.56
2018-02-01T00:26:40.784Z,19.55
2018-02-01T00:27:40.761Z,19.62
2018-02-01T00:28:40.747Z,19.58
2018-02-01T00:29:40.698Z,19.50
2018-02-01T00:30:40.683Z,19.50
2018-02-01T00:31:40.654Z,19.48
2018-02-01T00:32:40.662Z,19.50
2018-02-01T00:33:40.612Z,19.50
2018-02-01T00:34:40.597Z,19.40
2018-02-01T00:35:40.579Z,19.32
2018-02-01T00:36:40.556Z,19.48
2018-02-01T00:37:40.559Z,19.43
2018-02-01T00:38:40.515Z,19.46
2018-02-01T00:39:40.491Z,19.55
2018-02-01T00:40:40.499Z,19.54
2018-02-01T00:41:40.481Z,19.65
2018-02-01T00:42:40.459Z,19.62
2018-02-01T00:43:40.408Z,19.66
2018-02-01T00:44:40.420Z,19.73
2018-02-01T00:45:40.399Z,19.73
2018-02-01T00:46:40.382Z,19.68
2018-02-01T00:47:40.330Z,19.78
2018-02-01T00:48:40.347Z,19.77
2018-02-01T00:49:40.324Z,19.69
2018-02-01T00:50:40.284Z,19.78
2018-02-01T00:51:40.277Z,19.74
2018-02-01T00:52:40.238Z,19.76
2018-02-01T00:53:40.220Z,19.77
2018-02-01T00:54:40.192Z,19.69
2018-02-01T00:55:40.168Z,19.77
2018-02-01T00:56:40.161Z,19.77
2018-02-01T00:57:40.160Z,19.77
2018-02-01T00:58:40.115Z,19.65
2018-02-01T00:59:40.093Z,19.61
2018-02-01T01:00:40.073Z,19.58
2018-02-01T01:01:40.080Z,19.56
2018-02-01T01:02:40.031Z,19.58
2018-02-01T01:03:40.023Z,19.62
2018-02-01T01:04:40.020Z,19.55
2018-02-01T01:05:40.002Z,19.59
2018-02-01T01:06:39.959Z,19.68
2018-02-01T01:07:39.961Z,19.66
2018-02-01T01:08:39.918Z,19.65
2018-02-01T01:09:39.893Z,19.65
2018-02-01T01:10:39.896Z,19.66
2018-02-01T01:11:39.863Z,19.54
2018-02-01T01:12:39.835Z,19.54
2018-02-01T01:13:39.839Z,19.51
2018-02-01T01:14:39.790Z,19.31
2018-02-01T01:15:39.777Z,19.43
2018-02-01T01:16:39.751Z,19.37
2018-02-01T01:17:39.740Z,19.36
2018-02-01T01:18:39.712Z,19.32
2018-02-01T01:19:39.715Z,19.31
2018-02-01T01:20:39.700Z,19.31
2018-02-01T01:21:39.665Z,19.32
2018-02-01T01:22:39.627Z,19.25
2018-02-01T01:23:39.611Z,19.33
2018-02-01T01:24:39.601Z,19.32
2018-02-01T01:25:39.599Z,19.22
2018-02-01T01:26:39.549Z,19.21
2018-02-01T01:27:39.529Z,19.16
2018-02-01T01:28:39.517Z,19.07
2018-02-01T01:29:39.492Z,19.02
2018-02-01T01:30:39.467Z,18.95
2018-02-01T01:31:39.446Z,18.91
2018-02-01T01:32:39.422Z,18.90
2018-02-01T01:33:39.435Z,18.88
2018-02-01T01:34:39.411Z,18.70
2018-02-01T01:35:39.390Z,18.81
2018-02-01T01:36:39.369Z,18.82
2018-02-01T01:37:39.354Z,18.76
2018-02-01T01:38:39.326Z,18.84
2018-02-01T01:39:39.309Z,18.82
2018-02-01T01:40:39.816Z,18.82
2018-02-01T01:41:39.239Z,18.82
2018-02-01T01:42:39.244Z,18.82
2018-02-01T01:43:39.229Z,18.88
2018-02-01T01:44:39.176Z,18.85
2018-02-01T01:45:39.166Z,18.82
2018-02-01T01:46:39.136Z,18.87
2018-02-01T01:47:39.116Z,18.92
2018-02-01T01:48:39.099Z,18.85
2018-02-01T01:49:39.075Z,18.94
2018-02-01T01:50:39.059Z,18.88
2018-02-01T01:51:39.032Z,18.92
2018-02-01T01:52:39.012Z,18.91
2018-02-01T01:53:38.991Z,18.88
2018-02-01T01:54:38.974Z,18.90
2018-02-01T01:55:38.982Z,18.95
2018-02-01T01:56:38.934Z,18.92
2018-02-01T01:57:38.944Z,18.95
2018-02-01T01:58:38.889Z,18.99
2018-02-01T01:59:38.867Z,18.94
2018-02-01T02:00:38.878Z,18.98
2018-02-01T02:01:38.832Z,19.00
2018-02-01T02:02:38.828Z,18.94
2018-02-01T02:03:38.784Z,19.04
2018-02-01T02:04:38.765Z,18.90
2018-02-01T02:05:38.756Z,18.99
2018-02-01T02:06:38.734Z,19.00
2018-02-01T02:07:38.706Z,18.95
2018-02-01T02:08:38.692Z,19.04
2018-02-01T02:09:38.675Z,19.04
2018-02-01T02:10:38.644Z,19.11
2018-02-01T02:11:38.627Z,18.98
2018-02-01T02:12:38.598Z,18.90
2018-02-01T02:13:38.583Z,18.95
2018-02-01T02:14:38.558Z,18.91
2018-02-01T02:15:38.568Z,18.94
2018-02-01T02:16:38.548Z,18.91
2018-02-01T02:17:38.497Z,18.87
2018-02-01T02:18:38.475Z,18.80
2018-02-01T02:19:38.469Z,18.84
2018-02-01T02:20:38.435Z,18.80
2018-02-01T02:21:38.417Z,18.81
2018-02-01T02:22:38.420Z,18.85
2018-02-01T02:23:38.404Z,18.73
2018-02-01T02:24:38.379Z,18.81
2018-02-01T02:25:38.338Z,18.81
2018-02-01T02:26:38.309Z,18.85
2018-02-01T02:27:38.295Z,18.81
2018-02-01T02:28:38.300Z,18.81
2018-02-01T02:29:38.246Z,18.82
2018-02-01T02:30:38.225Z,18.81
2018-02-01T02:31:38.212Z,18.66
2018-02-01T02:32:38.200Z,18.75
2018-02-01T02:33:38.166Z,18.75
2018-02-01T02:34:38.171Z,18.70
2018-02-01T02:35:38.122Z,18.67
2018-02-01T02:36:38.104Z,18.72
2018-02-01T02:37:38.148Z,18.70
2018-02-01T02:38:38.072Z,18.66
2018-02-01T02:39:38.042Z,18.63
2018-02-01T02:40:38.033Z,18.58
2018-02-01T02:41:37.996Z,18.65
2018-02-01T02:42:37.994Z,18.63
2018-02-01T02:43:37.975Z,18.57
2018-02-01T02:44:37.935Z,18.66
2018-02-01T02:45:37.919Z,18.63
2018-02-01T02:46:37.921Z,18.60
2018-02-01T02:47:37.877Z,18.60
2018-02-01T02:48:37.852Z,18.63
2018-02-01T02:49:37.835Z,18.58
2018-02-01T02:50:37.815Z,18.62
2018-02-01T02:51:37.888Z,18.55
2018-02-01T02:52:37.855Z,18.55
2018-02-01T02:53:37.844Z,18.58
2018-02-01T02:54:37.830Z,18.57
2018-02-01T02:55:37.787Z,18.45
2018-02-01T02:56:37.784Z,18.57
2018-02-01T02:57:37.771Z,18.45
2018-02-01T02:58:37.725Z,18.50
2018-02-01T03:00:10.932Z,18.52
2018-02-01T03:00:37.675Z,18.54
2018-02-01T03:01:37.595Z,18.44
2018-02-01T03:02:37.565Z,18.42
2018-02-01T03:03:37.547Z,18.41
2018-02-01T03:04:38.096Z,18.42
2018-02-01T03:05:37.528Z,18.37
2018-02-01T03:06:37.481Z,18.42
2018-02-01T03:07:37.462Z,18.29
2018-02-01T03:08:37.469Z,18.41
2018-02-01T03:09:37.450Z,18.36
2018-02-01T03:10:37.428Z,18.41
2018-02-01T03:11:37.389Z,18.39
2018-02-01T03:12:37.382Z,18.36
2018-02-01T03:13:37.898Z,18.35
2018-02-01T03:14:37.346Z,18.30
2018-02-01T03:15:37.324Z,18.25
2018-02-01T03:16:37.274Z,18.27
2018-02-01T03:17:37.280Z,18.25
2018-02-01T03:18:37.260Z,18.21
2018-02-01T03:19:37.210Z,18.25
2018-02-01T03:20:37.202Z,18.20
2018-02-01T03:21:37.174Z,18.17
2018-02-01T03:22:37.153Z,18.14
2018-02-01T03:23:37.667Z,18.21
2018-02-01T03:24:37.107Z,18.17
2018-02-01T03:25:37.115Z,18.25
2018-02-01T03:26:37.078Z,18.20
2018-02-01T03:27:37.045Z,18.21
2018-02-01T03:28:37.050Z,18.27
2018-02-01T03:29:37.007Z,18.20
2018-02-01T03:30:36.989Z,18.21
2018-02-01T03:31:36.965Z,18.17
2018-02-01T03:32:36.974Z,18.17
2018-02-01T03:33:36.954Z,18.18
2018-02-01T03:34:36.908Z,18.17
2018-02-01T03:35:36.906Z,18.20
2018-02-01T03:36:36.885Z,18.20
2018-02-01T03:37:37.460Z,18.23
2018-02-01T03:39:35.726Z,18.12
2018-02-01T03:39:36.808Z,18.11
2018-02-01T03:40:36.805Z,18.10
2018-02-01T03:41:36.786Z,18.14
2018-02-01T03:42:36.766Z,18.10
2018-02-01T03:43:36.740Z,18.12
2018-02-01T03:44:36.695Z,18.14
2018-02-01T03:45:36.674Z,18.15
2018-02-01T03:46:36.680Z,18.14
2018-02-01T03:47:36.654Z,18.12
2018-02-01T03:48:36.633Z,18.20
2018-02-01T03:49:36.616Z,18.25
2018-02-01T03:50:36.573Z,18.21
2018-02-01T03:51:36.550Z,18.25
2018-02-01T03:52:36.552Z,18.25
2018-02-01T03:53:36.528Z,18.14
2018-02-01T03:54:36.509Z,18.20
2018-02-01T03:55:36.486Z,18.27
2018-02-01T03:56:36.444Z,18.33
2018-02-01T03:57:36.420Z,18.39
2018-02-01T03:58:36.425Z,18.39
2018-02-01T03:59:36.405Z,18.50
2018-02-01T04:00:36.356Z,18.52
2018-02-01T04:01:36.340Z,18.65
2018-02-01T04:02:36.347Z,18.73
2018-02-01T04:03:36.329Z,18.63
2018-02-01T04:04:36.271Z,18.66
2018-02-01T04:05:36.281Z,18.78
2018-02-01T04:06:36.247Z,18.80
2018-02-01T04:07:36.218Z,18.81
2018-02-01T04:08:36.194Z,18.85
2018-02-01T04:09:36.199Z,18.84
2018-02-01T04:10:36.164Z,18.88
2018-02-01T04:11:36.158Z,18.92
2018-02-01T04:12:36.139Z,18.92
2018-02-01T04:13:36.122Z,18.85
2018-02-01T04:14:36.068Z,18.91
2018-02-01T04:15:36.059Z,18.91
2018-02-01T04:16:36.031Z,18.82
2018-02-01T04:17:36.035Z,18.90
2018-02-01T04:18:35.997Z,18.82
2018-02-01T04:19:35.965Z,18.85
2018-02-01T04:20:36.101Z,19.00
2018-02-01T04:21:35.937Z,18.92
2018-02-01T04:22:35.933Z,18.98
2018-02-01T04:23:35.912Z,18.92
2018-02-01T04:24:35.864Z,19.06
2018-02-01T04:25:35.857Z,19.07
2018-02-01T04:26:35.852Z,19.02
2018-02-01T04:27:35.809Z,18.99
2018-02-01T04:28:35.786Z,19.06
2018-02-01T04:29:35.772Z,19.07
2018-02-01T04:30:35.800Z,19.06
2018-02-01T04:31:35.721Z,19.08
2018-02-01T04:32:35.713Z,19.08
2018-02-01T04:33:35.685Z,19.06
2018-02-01T04:34:35.672Z,19.13
2018-02-01T04:35:35.688Z,19.11
2018-02-01T04:36:35.619Z,19.04
2018-02-01T04:37:35.601Z,19.02
2018-02-01T04:38:35.585Z,18.98
2018-02-01T04:39:35.556Z,19.08
2018-02-01T04:40:35.567Z,18.99
2018-02-01T04:41:35.518Z,19.00
2018-02-01T04:42:35.528Z,18.98
2018-02-01T04:43:35.503Z,18.99
2018-02-01T04:44:35.458Z,19.07
2018-02-01T04:45:35.466Z,18.99
2018-02-01T04:46:35.417Z,19.04
2018-02-01T04:47:35.427Z,19.06
2018-02-01T04:48:35.405Z,19.08
2018-02-01T04:49:35.382Z,19.07
2018-02-01T04:50:35.365Z,19.04
2018-02-01T04:51:35.325Z,19.06
2018-02-01T04:52:35.321Z,19.11
2018-02-01T04:53:35.301Z,19.02
2018-02-01T04:54:35.269Z,19.07
2018-02-01T04:55:35.247Z,19.02
2018-02-01T04:56:35.220Z,19.07
2018-02-01T04:57:35.202Z,19.10
2018-02-01T04:58:35.196Z,19.02
2018-02-01T04:59:35.154Z,19.07
2018-02-01T05:00:35.130Z,19.06
2018-02-01T05:01:35.122Z,19.11
2018-02-01T05:02:35.095Z,19.02
2018-02-01T05:03:35.079Z,19.00
2018-02-01T05:04:35.052Z,19.06
2018-02-01T05:05:35.034Z,19.06
2018-02-01T05:06:35.019Z,19.06
2018-02-01T05:07:35.000Z,19.13
2018-02-01T05:08:34.976Z,19.04
2018-02-01T05:09:34.961Z,19.04
2018-02-01T05:10:34.945Z,19.08
2018-02-01T05:11:34.917Z,19.18
2018-02-01T05:12:34.895Z,19.10
2018-02-01T05:13:34.875Z,19.18
2018-02-01T05:14:34.872Z,19.21
2018-02-01T05:15:34.843Z,19.16
2018-02-01T05:16:34.865Z,19.25
2018-02-01T05:17:34.803Z,19.25
2018-02-01T05:18:34.782Z,19.28
2018-02-01T05:19:34.753Z,19.22
2018-02-01T05:20:34.732Z,19.28
2018-02-01T05:21:34.716Z,19.21
2018-02-01T05:22:34.693Z,19.26
2018-02-01T05:23:34.674Z,19.25
2018-02-01T05:24:34.651Z,19.18
2018-02-01T05:25:34.652Z,19.23
2018-02-01T05:26:34.617Z,19.25
2018-02-01T05:27:34.607Z,19.21
2018-02-01T05:28:34.571Z,19.22
2018-02-01T05:29:34.555Z,19.31
2018-02-01T05:30:34.546Z,19.32
2018-02-01T05:31:34.511Z,19.33
2018-02-01T05:32:34.511Z,19.28
2018-02-01T05:33:34.485Z,19.29
2018-02-01T05:34:34.459Z,19.36
2018-02-01T05:35:34.450Z,19.32
2018-02-01T05:36:34.430Z,19.32
2018-02-01T05:37:34.405Z,19.33
2018-02-01T05:38:34.380Z,19.37
2018-02-01T05:39:34.353Z,19.32
2018-02-01T05:40:34.337Z,19.31
2018-02-01T05:41:34.325Z,19.28
2018-02-01T05:42:34.296Z,19.37
2018-02-01T05:43:34.286Z,19.32
2018-02-01T05:44:34.256Z,19.25
2018-02-01T05:45:34.242Z,19.32
2018-02-01T05:46:34.213Z,19.33
2018-02-01T05:47:34.202Z,19.32
2018-02-01T05:48:34.173Z,19.39
2018-02-01T05:49:34.156Z,19.32
2018-02-01T05:50:34.154Z,19.25
2018-02-01T05:51:34.125Z,19.25
2018-02-01T05:52:34.095Z,19.21
2018-02-01T05:53:34.089Z,19.25
2018-02-01T05:54:34.055Z,19.18
2018-02-01T05:55:34.042Z,19.14
2018-02-01T05:56:34.021Z,19.19
2018-02-01T05:57:34.005Z,19.22
2018-02-01T05:58:33.983Z,19.16
2018-02-01T05:59:33.955Z,19.16
2018-02-01T06:00:33.935Z,19.26
2018-02-01T06:01:33.928Z,19.16
2018-02-01T06:02:33.905Z,19.18
2018-02-01T06:03:33.884Z,19.22
2018-02-01T06:04:33.864Z,19.08
2018-02-01T06:05:33.843Z,19.07
2018-02-01T06:06:33.821Z,19.13
2018-02-01T06:07:33.793Z,19.02
2018-02-01T06:08:33.778Z,19.07
2018-02-01T06:09:33.794Z,19.02
2018-02-01T06:10:33.743Z,19.02
2018-02-01T06:11:33.715Z,19.10
2018-02-01T06:12:33.693Z,19.02
2018-02-01T06:13:33.668Z,19.07
2018-02-01T06:14:33.659Z,19.07
2018-02-01T06:15:33.639Z,19.10
2018-02-01T06:16:33.627Z,19.04
2018-02-01T06:17:33.606Z,19.08
2018-02-01T06:18:33.590Z,19.19
2018-02-01T06:19:33.549Z,19.04
2018-02-01T06:20:33.551Z,19.10
2018-02-01T06:21:33.508Z,19.16
2018-02-01T06:22:33.487Z,19.21
2018-02-01T06:23:33.481Z,19.18
2018-02-01T06:24:33.462Z,19.19
2018-02-01T06:25:33.434Z,19.11
2018-02-01T06:26:33.418Z,19.11
2018-02-01T06:27:33.402Z,19.22
2018-02-01T06:28:33.376Z,19.18
2018-02-01T06:29:33.353Z,19.10
2018-02-01T06:30:33.332Z,19.16
2018-02-01T06:31:33.311Z,19.22
2018-02-01T06:32:33.300Z,19.22
2018-02-01T06:33:33.270Z,19.21
2018-02-01T06:34:33.263Z,19.16
2018-02-01T06:35:33.244Z,19.21
2018-02-01T06:36:33.220Z,19.25
2018-02-01T06:37:33.187Z,19.10
2018-02-01T06:38:33.171Z,19.16
2018-02-01T06:39:33.159Z,19.16
2018-02-01T06:40:33.124Z,19.07
2018-02-01T06:41:33.108Z,19.04
2018-02-01T06:42:33.101Z,18.99
2018-02-01T06:43:33.079Z,18.92
2018-02-01T06:44:33.045Z,19.04
2018-02-01T06:45:33.037Z,19.00
2018-02-01T06:46:33.018Z,19.07
2018-02-01T06:47:33.003Z,19.00
2018-02-01T06:48:32.978Z,19.07
2018-02-01T06:49:32.956Z,19.00
2018-02-01T06:50:32.927Z,19.06
2018-02-01T06:51:32.916Z,19.04
2018-02-01T06:52:32.883Z,18.95
2018-02-01T06:53:32.872Z,18.94
2018-02-01T06:54:32.855Z,18.99
2018-02-01T06:55:32.834Z,18.95
2018-02-01T06:56:32.813Z,18.99
2018-02-01T06:57:32.785Z,18.87
2018-02-01T06:58:32.776Z,18.85
2018-02-01T06:59:32.741Z,18.88
2018-02-01T07:00:32.741Z,18.82
2018-02-01T07:01:32.705Z,18.81
2018-02-01T07:02:32.681Z,18.76
2018-02-01T07:03:32.668Z,18.72
2018-02-01T07:04:32.651Z,18.63
2018-02-01T07:05:32.632Z,18.76
2018-02-01T07:06:32.810Z,18.67
2018-02-01T07:07:32.591Z,18.67
2018-02-01T07:08:32.575Z,18.78
2018-02-01T07:09:32.538Z,18.75
2018-02-01T07:10:32.532Z,18.76
2018-02-01T07:11:32.501Z,18.69
2018-02-01T07:12:32.492Z,18.81
2018-02-01T07:13:32.457Z,18.87
2018-02-01T07:14:32.436Z,18.84
2018-02-01T07:15:32.411Z,18.87
2018-02-01T07:16:32.396Z,18.81
2018-02-01T07:17:32.376Z,18.82
2018-02-01T07:18:32.370Z,18.84
2018-02-01T07:19:32.338Z,18.70
2018-02-01T07:20:32.325Z,18.72
2018-02-01T07:21:32.296Z,18.78
2018-02-01T07:22:32.286Z,18.75
2018-02-01T07:23:32.255Z,18.67
2018-02-01T07:24:32.235Z,18.80
2018-02-01T07:25:32.223Z,18.85
2018-02-01T07:26:32.197Z,18.80
2018-02-01T07:27:32.186Z,18.91
2018-02-01T07:28:32.151Z,18.84
2018-02-01T07:29:32.134Z,18.90
2018-02-01T07:30:32.125Z,18.88
2018-02-01T07:31:32.112Z,18.84
2018-02-01T07:32:32.072Z,18.85
2018-02-01T07:33:32.052Z,18.92
2018-02-01T07:34:32.049Z,18.84
2018-02-01T07:35:32.009Z,18.82
2018-02-01T07:36:31.989Z,18.87
2018-02-01T07:37:31.987Z,18.85
2018-02-01T07:38:31.950Z,18.69
2018-02-01T07:39:31.935Z,18.78
2018-02-01T07:40:31.921Z,18.69
2018-02-01T07:41:31.902Z,18.81
2018-02-01T07:42:31.876Z,18.87
2018-02-01T07:43:31.848Z,18.75
2018-02-01T07:44:31.848Z,18.81
2018-02-01T07:45:31.808Z,18.85
2018-02-01T07:46:31.811Z,18.84
2018-02-01T07:47:31.782Z,18.81
2018-02-01T07:48:31.758Z,18.78
2018-02-01T07:49:31.740Z,18.78
2018-02-01T07:50:31.728Z,18.81
2018-02-01T07:51:31.687Z,18.67
2018-02-01T07:52:31.670Z,18.76
2018-02-01T07:53:31.659Z,18.78
2018-02-01T07:54:31.641Z,18.78
2018-02-01T07:55:31.617Z,18.78
2018-02-01T07:56:31.600Z,18.73
2018-02-01T07:57:31.577Z,18.69
2018-02-01T07:58:31.557Z,18.65
2018-02-01T07:59:31.524Z,18.63
2018-02-01T08:00:31.515Z,18.51
2018-02-01T08:01:31.481Z,18.52
2018-02-01T08:02:31.470Z,18.55
2018-02-01T08:03:31.453Z,18.57
2018-02-01T08:04:31.440Z,18.36
2018-02-01T08:05:31.401Z,18.54
2018-02-01T08:06:31.393Z,18.54
2018-02-01T08:07:31.396Z,18.57
2018-02-01T08:08:31.350Z,18.67
2018-02-01T08:09:31.330Z,18.65
2018-02-01T08:10:31.296Z,18.72
2018-02-01T08:11:31.292Z,18.69
2018-02-01T08:12:31.269Z,18.78
2018-02-01T08:13:31.240Z,18.73
2018-02-01T08:14:31.229Z,18.78
2018-02-01T08:15:31.201Z,18.88
2018-02-01T08:16:31.191Z,18.84
2018-02-01T08:17:31.171Z,18.84
2018-02-01T08:18:31.147Z,18.98
2018-02-01T08:19:31.118Z,18.94
2018-02-01T08:20:31.095Z,18.92
2018-02-01T08:21:31.088Z,18.88
2018-02-01T08:22:31.054Z,18.94
2018-02-01T08:23:31.040Z,18.82
2018-02-01T08:24:31.025Z,18.82
2018-02-01T08:25:30.998Z,18.82
2018-02-01T08:26:30.972Z,18.80
2018-02-01T08:27:30.980Z,18.78
2018-02-01T08:28:30.966Z,18.72
2018-02-01T08:29:30.910Z,18.76
2018-02-01T08:30:30.900Z,18.73
2018-02-01T08:31:30.899Z,18.70
2018-02-01T08:32:30.851Z,18.63
2018-02-01T08:33:30.829Z,18.57
2018-02-01T08:34:30.819Z,18.62
2018-02-01T08:35:30.792Z,18.55
2018-02-01T08:36:30.794Z,18.54
2018-02-01T08:37:30.760Z,18.57
2018-02-01T08:38:30.762Z,18.50
2018-02-01T08:39:30.711Z,18.57
2018-02-01T08:40:30.690Z,18.35
2018-02-01T08:41:30.672Z,18.39
2018-02-01T08:42:30.648Z,18.37
2018-02-01T08:43:30.652Z,18.36
2018-02-01T08:44:30.613Z,18.42
2018-02-01T08:45:30.590Z,18.30
2018-02-01T08:46:30.584Z,18.30
2018-02-01T08:47:30.573Z,18.33
2018-02-01T08:48:30.556Z,18.29
2018-02-01T08:49:30.527Z,18.25
2018-02-01T08:50:30.486Z,18.20
2018-02-01T08:51:30.465Z,18.18
2018-02-01T08:52:30.440Z,18.26
2018-02-01T08:53:30.417Z,18.25
2018-02-01T08:54:30.397Z,18.21
2018-02-01T08:55:30.394Z,18.20
2018-02-01T08:56:30.374Z,18.29
2018-02-01T08:57:30.337Z,18.32
2018-02-01T08:58:30.316Z,18.36
2018-02-01T08:59:30.295Z,18.48
2018-02-01T09:00:30.308Z,18.52
2018-02-01T09:01:30.260Z,18.66
2018-02-01T09:02:30.262Z,18.75
2018-02-01T09:03:30.211Z,18.88
2018-02-01T09:04:30.208Z,18.98
2018-02-01T09:05:30.178Z,19.18
2018-02-01T09:06:30.153Z,19.23
2018-02-01T09:07:30.132Z,19.47
2018-02-01T09:08:30.137Z,19.66
2018-02-01T09:09:30.093Z,19.84
2018-02-01T09:10:30.081Z,19.95
2018-02-01T09:11:30.074Z,20.28
2018-02-01T09:12:30.054Z,20.39
2018-02-01T09:13:30.012Z,20.42
2018-02-01T09:14:30.019Z,20.43
2018-02-01T09:15:29.975Z,20.57
2018-02-01T09:16:29.973Z,20.58
2018-02-01T09:17:29.945Z,20.67
2018-02-01T09:18:29.908Z,20.64
2018-02-01T09:19:29.922Z,20.59
2018-02-01T09:20:29.885Z,20.80
2018-02-01T09:21:29.857Z,20.92
2018-02-01T09:22:29.857Z,21.14
2018-02-01T09:23:29.840Z,21.38
2018-02-01T09:24:29.817Z,21.42
2018-02-01T09:25:29.771Z,21.56
2018-02-01T09:26:29.759Z,21.58
2018-02-01T09:27:29.765Z,21.49
2018-02-01T09:28:29.746Z,21.42
2018-02-01T09:29:29.697Z,21.38
2018-02-01T09:30:29.680Z,21.25
2018-02-01T09:31:29.692Z,21.16
2018-02-01T09:32:29.643Z,21.10
2018-02-01T09:33:29.653Z,21.25
2018-02-01T09:34:29.636Z,21.42
2018-02-01T09:35:29.613Z,21.58
2018-02-01T09:36:29.571Z,21.50
2018-02-01T09:37:29.578Z,21.38
2018-02-01T09:38:29.544Z,21.49
2018-02-01T09:39:29.515Z,21.54
2018-02-01T09:40:29.511Z,21.53
2018-02-01T09:41:29.496Z,21.52
2018-02-01T09:42:29.475Z,21.69
2018-02-01T09:43:29.444Z,21.65
2018-02-01T09:44:29.446Z,21.53
2018-02-01T09:45:29.423Z,21.54
2018-02-01T09:46:29.392Z,21.64
2018-02-01T09:47:29.394Z,21.52
2018-02-01T09:48:29.375Z,21.17
2018-02-01T09:49:29.369Z,21.35
2018-02-01T09:50:29.321Z,21.53
2018-02-01T09:51:29.330Z,21.77
2018-02-01T09:52:29.311Z,21.86
2018-02-01T09:53:29.285Z,21.96
2018-02-01T09:54:29.271Z,22.25
2018-02-01T09:55:29.236Z,22.24
2018-02-01T09:56:29.245Z,22.46
2018-02-01T09:57:29.193Z,22.47
2018-02-01T09:58:29.185Z,22.21
2018-02-01T09:59:29.190Z,21.86
2018-02-01T10:00:29.178Z,21.83
2018-02-01T10:01:29.143Z,22.27
2018-02-01T10:02:29.143Z,22.46
2018-02-01T10:03:29.109Z,22.72
2018-02-01T10:04:29.084Z,22.97
2018-02-01T10:05:29.093Z,23.17
2018-02-01T10:06:29.075Z,23.17
2018-02-01T10:07:29.035Z,23.40
2018-02-01T10:08:29.014Z,23.79
2018-02-01T10:09:28.998Z,23.72
2018-02-01T10:10:29.541Z,23.36
2018-02-01T10:11:28.967Z,23.17
2018-02-01T10:12:28.952Z,23.23
2018-02-01T10:13:28.949Z,23.53
2018-02-01T10:14:28.919Z,23.58
2018-02-01T10:15:28.932Z,23.93
2018-02-01T10:16:28.888Z,24.08
2018-02-01T10:17:28.876Z,24.21
2018-02-01T10:18:28.887Z,24.39
2018-02-01T10:19:28.854Z,24.10
2018-02-01T10:20:28.837Z,23.83
2018-02-01T10:21:28.821Z,23.42
2018-02-01T10:22:28.806Z,22.95
2018-02-01T10:23:28.795Z,22.64
2018-02-01T10:24:28.771Z,22.64
2018-02-01T10:25:28.752Z,22.70
2018-02-01T10:26:28.733Z,22.90
2018-02-01T10:27:28.746Z,23.15
2018-02-01T10:28:28.708Z,23.51
2018-02-01T10:29:28.695Z,23.72
2018-02-01T10:30:28.708Z,23.72
2018-02-01T10:31:28.695Z,23.55
2018-02-01T10:32:28.675Z,23.23
2018-02-01T10:33:28.648Z,22.97
2018-02-01T10:34:28.620Z,22.88
2018-02-01T10:35:28.601Z,23.28
2018-02-01T10:36:28.589Z,23.78
2018-02-01T10:37:28.571Z,23.79
2018-02-01T10:38:28.561Z,23.60
2018-02-01T10:39:28.570Z,23.60
2018-02-01T10:40:28.528Z,23.25
2018-02-01T10:41:28.540Z,23.55
2018-02-01T10:42:28.526Z,24.02
2018-02-01T10:43:28.510Z,24.34
2018-02-01T10:44:28.471Z,24.13
2018-02-01T10:45:28.466Z,23.97
2018-02-01T10:46:28.466Z,23.88
2018-02-01T10:47:28.429Z,23.60
2018-02-01T10:48:28.436Z,23.66
2018-02-01T10:49:28.423Z,23.79
2018-02-01T10:50:28.395Z,23.72
2018-02-01T10:51:28.371Z,23.85
2018-02-01T10:52:28.382Z,23.80
2018-02-01T10:53:28.342Z,23.94
2018-02-01T10:54:28.327Z,24.09
2018-02-01T10:55:28.316Z,23.68
2018-02-01T10:56:28.297Z,23.23
2018-02-01T10:57:28.312Z,23.10
2018-02-01T10:58:28.269Z,22.72
2018-02-01T10:59:28.285Z,22.18
2018-02-01T11:00:28.266Z,21.91
2018-02-01T11:01:28.253Z,21.65
2018-02-01T11:02:28.239Z,21.67
2018-02-01T11:03:28.194Z,21.98
2018-02-01T11:04:28.188Z,22.09
2018-02-01T11:05:28.176Z,22.05
2018-02-01T11:06:28.169Z,21.88
2018-02-01T11:07:28.135Z,21.83
2018-02-01T11:08:28.117Z,21.96
2018-02-01T11:09:28.102Z,21.96
2018-02-01T11:10:28.087Z,21.69
2018-02-01T11:11:28.076Z,21.68
2018-02-01T11:12:28.080Z,21.58
2018-02-01T11:13:28.038Z,21.71
2018-02-01T11:14:28.579Z,21.92
2018-02-01T11:15:28.039Z,22.14
2018-02-01T11:16:27.995Z,22.20
2018-02-01T11:17:27.986Z,22.35
2018-02-01T11:18:27.984Z,22.68
2018-02-01T11:19:27.968Z,23.36
2018-02-01T11:20:27.939Z,24.06
2018-02-01T11:21:27.919Z,24.58
2018-02-01T11:22:27.892Z,24.57
2018-02-01T11:23:27.906Z,24.60
2018-02-01T11:24:27.896Z,24.81
2018-02-01T11:25:27.856Z,24.85
2018-02-01T11:26:27.837Z,24.91
2018-02-01T11:27:27.854Z,25.00
2018-02-01T11:28:27.843Z,25.17
2018-02-01T11:29:27.805Z,25.35
2018-02-01T11:30:27.787Z,25.72
2018-02-01T11:31:27.810Z,26.17
2018-02-01T11:32:27.793Z,26.40
2018-02-01T11:33:27.758Z,26.01
2018-02-01T11:34:27.739Z,25.36
2018-02-01T11:35:27.732Z,24.83
2018-02-01T11:36:27.715Z,24.21
2018-02-01T11:37:27.719Z,24.16
2018-02-01T11:38:27.704Z,24.46
2018-02-01T11:39:27.678Z,24.42
2018-02-01T11:40:27.691Z,24.39
2018-02-01T11:41:27.649Z,24.47
2018-02-01T11:42:27.673Z,24.43
2018-02-01T11:43:27.654Z,24.21
2018-02-01T11:44:27.619Z,23.88
2018-02-01T11:45:27.618Z,23.70
2018-02-01T11:46:27.592Z,23.28
2018-02-01T11:47:27.581Z,22.85
2018-02-01T11:48:27.565Z,22.76
2018-02-01T11:49:27.552Z,22.83
2018-02-01T11:50:27.538Z,22.97
2018-02-01T11:51:27.527Z,23.70
2018-02-01T11:52:27.539Z,24.00
2018-02-01T11:53:27.496Z,24.06
2018-02-01T11:54:27.489Z,23.85
2018-02-01T11:55:27.470Z,23.57
2018-02-01T11:56:27.459Z,23.66
2018-02-01T11:57:27.456Z,23.57
2018-02-01T11:58:27.442Z,23.39
2018-02-01T11:59:27.439Z,23.28
2018-02-01T12:00:27.411Z,23.07
2018-02-01T12:01:27.391Z,23.01
2018-02-01T12:02:27.376Z,23.10
2018-02-01T12:03:27.390Z,23.40
2018-02-01T12:04:27.370Z,23.88
2018-02-01T12:05:27.364Z,24.35
2018-02-01T12:06:27.343Z,24.45
2018-02-01T12:07:27.338Z,24.45
2018-02-01T12:08:27.298Z,24.52
2018-02-01T12:09:27.303Z,24.58
2018-02-01T12:10:27.261Z,24.68
2018-02-01T12:11:27.265Z,24.58
2018-02-01T12:12:27.265Z,24.68
2018-02-01T12:13:27.222Z,24.65
2018-02-01T12:14:27.219Z,24.80
2018-02-01T12:15:27.203Z,24.60
2018-02-01T12:16:27.204Z,24.69
2018-02-01T12:17:27.212Z,24.80
2018-02-01T12:18:27.166Z,24.90
2018-02-01T12:19:27.156Z,24.93
2018-02-01T12:20:27.169Z,25.05
2018-02-01T12:21:27.198Z,25.02
2018-02-01T12:22:27.124Z,25.02
2018-02-01T12:23:27.106Z,25.25
2018-02-01T12:24:27.103Z,25.55
2018-02-01T12:25:27.657Z,25.70
2018-02-01T12:26:27.105Z,25.47
2018-02-01T12:27:27.092Z,25.57
2018-02-01T12:28:27.083Z,25.85
2018-02-01T12:29:27.048Z,25.79
2018-02-01T12:30:27.061Z,25.51
2018-02-01T12:31:27.036Z,25.60
2018-02-01T12:32:27.015Z,26.07
2018-02-01T12:33:27.030Z,26.21
2018-02-01T12:34:26.994Z,26.26
2018-02-01T12:35:27.012Z,26.44
2018-02-01T12:36:26.975Z,26.43
2018-02-01T12:37:26.982Z,26.30
2018-02-01T12:38:26.981Z,26.21
2018-02-01T12:39:26.974Z,26.02
2018-02-01T12:40:26.949Z,25.80
2018-02-01T12:41:26.943Z,25.58
2018-02-01T12:42:26.947Z,25.69
2018-02-01T12:43:26.910Z,26.10
2018-02-01T12:44:26.926Z,26.10
2018-02-01T12:45:26.917Z,25.67
2018-02-01T12:46:26.908Z,25.36
2018-02-01T12:47:26.871Z,25.27
2018-02-01T12:48:26.893Z,25.18
2018-02-01T12:49:26.852Z,25.17
2018-02-01T12:50:26.871Z,25.36
2018-02-01T12:51:26.857Z,25.54
2018-02-01T12:52:26.828Z,25.46